Time;durP1;ratioP1;P1;durP2;ratioP2;P2;SDS_P1;SDS_P2;PMS_P1;PMS_P2;Temp;Humidity;BMP_temperature;BMP_pressure;BME280_temperature;BME280_humidity;BME280_pressure;Samples;Min_cycle;Max_cycle;Signal;HPM_P1;HPM_P2
2023/06/08 00:00:23;;;;;;;16.92;7.95;;;13.10;99.90;;;;;;5052486;28;20037;-57
2023/06/08 00:02:49;;;;;;;14.75;7.43;;;13.00;99.90;;;;;;5070400;28;20710;-57
2023/06/08 00:05:16;;;;;;;13.30;8.45;;;13.00;99.90;;;;;;5070292;28;20462;-58
2023/06/08 00:07:42;;;;;;;14.63;9.13;;;13.00;99.90;;;;;;5070548;28;20052;-57
2023/06/08 00:10:10;;;;;;;15.82;9.15;;;13.10;99.90;;;;;;5070315;28;20365;-58
2023/06/08 00:12:36;;;;;;;15.57;9.15;;;13.10;99.90;;;;;;5052389;28;20449;-58
2023/06/08 00:15:07;;;;;;;16.75;7.07;;;13.10;99.90;;;;;;5070228;28;20472;-58
2023/06/08 00:17:33;;;;;;;16.60;8.90;;;13.10;99.90;;;;;;5070188;28;20486;-59
2023/06/08 00:19:59;;;;;;;17.70;8.20;;;13.00;99.90;;;;;;5069977;28;20064;-58
2023/06/08 00:22:26;;;;;;;20.52;8.82;;;13.00;99.90;;;;;;5070315;28;20036;-58
2023/06/08 00:24:52;;;;;;;19.95;9.18;;;13.00;99.90;;;;;;5069822;28;20116;-58
2023/06/08 00:27:18;;;;;;;15.48;10.15;;;13.00;99.90;;;;;;5070167;28;20442;-58
2023/06/08 00:29:44;;;;;;;16.70;10.85;;;13.10;99.90;;;;;;5070311;28;20036;-58
2023/06/08 00:32:10;;;;;;;15.85;10.15;;;13.10;99.90;;;;;;5052192;28;20119;-58
2023/06/08 00:34:35;;;;;;;17.15;9.80;;;13.10;99.90;;;;;;5070028;28;20127;-58
2023/06/08 00:37:01;;;;;;;18.13;10.73;;;13.10;99.90;;;;;;5070291;28;20479;-58
2023/06/08 00:39:27;;;;;;;18.52;10.35;;;13.10;99.90;;;;;;5069695;28;20044;-58
2023/06/08 00:41:52;;;;;;;17.58;10.80;;;13.10;99.90;;;;;;5052534;28;20115;-57
2023/06/08 00:44:18;;;;;;;17.05;10.93;;;13.10;99.90;;;;;;5070260;28;20035;-58
2023/06/08 00:46:44;;;;;;;19.55;10.80;;;13.10;99.90;;;;;;5070356;28;20043;-58
2023/06/08 00:49:17;;;;;;;17.00;10.85;;;13.10;99.90;;;;;;5069917;28;20044;-57
2023/06/08 00:51:43;;;;;;;17.98;11.45;;;13.00;99.90;;;;;;5070103;28;20044;-58
2023/06/08 00:54:14;;;;;;;18.42;11.45;;;13.00;99.90;;;;;;5069631;28;20032;-58
2023/06/08 00:56:41;;;;;;;21.30;8.88;;;13.10;99.90;;;;;;5064757;28;20060;-58
2023/06/08 00:59:09;;;;;;;20.40;11.52;;;12.90;99.90;;;;;;5050097;28;20404;-58
2023/06/08 01:01:35;;;;;;;20.48;8.85;;;12.90;99.90;;;;;;5051390;28;20037;-58
2023/06/08 01:04:09;;;;;;;16.60;11.02;;;12.90;99.90;;;;;;5049922;28;20033;-60
2023/06/08 01:06:36;;;;;;;;;;;12.90;99.90;;;;;;5069959;28;20480;-58
2023/06/08 01:09:19;;;;;;;19.65;11.07;;;12.90;99.90;;;;;;5070015;28;19922;-56
2023/06/08 01:12:10;;;;;;;17.75;11.50;;;12.90;99.90;;;;;;5055634;28;20079;-59
2023/06/08 01:15:07;;;;;;;18.75;11.70;;;13.00;99.90;;;;;;5073571;28;20048;-58
2023/06/08 01:17:48;;;;;;;22.65;13.15;;;13.00;99.90;;;;;;5073789;28;20476;-58
2023/06/08 01:20:20;;;;;;;21.80;12.85;;;12.90;99.90;;;;;;5073443;28;20428;-58
2023/06/08 01:23:04;;;;;;;20.88;14.07;;;12.90;99.90;;;;;;5055321;28;20115;-57
2023/06/08 01:25:32;;;;;;;21.42;13.13;;;13.00;99.90;;;;;;5073312;28;20048;-58
2023/06/08 01:28:12;;;;;;;21.08;10.40;;;12.90;99.90;;;;;;5073411;28;20075;-58
2023/06/08 01:30:46;;;;;;;23.50;10.90;;;12.80;99.90;;;;;;5073422;28;20092;-56
2023/06/08 01:33:16;;;;;;;22.13;13.27;;;12.80;99.90;;;;;;5055566;28;20051;-58
2023/06/08 01:35:45;;;;;;;19.27;12.48;;;12.70;99.90;;;;;;5073026;28;20076;-57
2023/06/08 01:38:28;;;;;;;18.92;13.00;;;12.70;99.90;;;;;;5072904;28;20115;-58
2023/06/08 01:40:59;;;;;;;17.75;10.13;;;12.70;99.90;;;;;;5061318;28;20389;-57
2023/06/08 01:43:27;;;;;;;22.83;13.82;;;12.60;99.90;;;;;;5072663;28;20036;-57
2023/06/08 01:45:58;;;;;;;21.00;12.98;;;12.60;99.90;;;;;;5073051;28;20032;-56
2023/06/08 01:48:26;;;;;;;18.00;13.23;;;12.70;99.90;;;;;;5073180;28;20037;-57
2023/06/08 01:50:53;;;;;;;19.63;12.48;;;12.80;99.90;;;;;;5072787;28;20032;-57
2023/06/08 01:53:18;;;;;;;19.60;10.52;;;12.80;99.90;;;;;;5054825;28;20098;-59
2023/06/08 01:55:49;;;;;;;16.05;11.73;;;12.80;99.90;;;;;;5072493;28;20041;-58
2023/06/08 01:58:15;;;;;;;18.65;12.88;;;12.80;99.90;;;;;;5052850;28;20072;-57
2023/06/08 02:00:41;;;;;;;18.30;12.80;;;12.80;99.90;;;;;;5035077;28;20372;-58
2023/06/08 02:03:06;;;;;;;19.83;12.38;;;12.80;99.90;;;;;;5052726;28;20500;-57
2023/06/08 02:05:32;;;;;;;17.63;11.93;;;12.80;99.90;;;;;;5052707;28;20037;-57
2023/06/08 02:07:58;;;;;;;17.33;11.82;;;12.80;99.90;;;;;;5052981;28;20040;-58
2023/06/08 02:10:24;;;;;;;17.73;12.90;;;12.80;99.90;;;;;;5052578;28;20071;-56
2023/06/08 02:12:50;;;;;;;18.00;12.27;;;12.80;99.90;;;;;;5052123;28;20185;-58
2023/06/08 02:15:16;;;;;;;24.25;10.13;;;12.80;99.90;;;;;;5052099;28;20037;-59
2023/06/08 02:17:42;;;;;;;20.58;12.27;;;12.80;99.90;;;;;;5052505;28;20045;-57
2023/06/08 02:20:09;;;;;;;18.33;12.60;;;12.70;99.90;;;;;;5051728;28;20291;-58
2023/06/08 02:22:36;;;;;;;17.83;9.68;;;12.70;99.90;;;;;;5052268;28;20029;-58
2023/06/08 02:25:02;;;;;;;16.90;12.15;;;12.70;99.90;;;;;;5051536;28;20124;-57
2023/06/08 02:27:28;;;;;;;21.05;12.45;;;12.70;99.90;;;;;;5017968;28;20049;-57
2023/06/08 02:29:55;;;;;;;19.08;11.75;;;12.70;99.90;;;;;;5052130;28;20036;-57
2023/06/08 02:32:21;;;;;;;19.65;12.13;;;12.70;99.90;;;;;;5052002;28;20060;-58
2023/06/08 02:34:53;;;;;;;21.25;12.80;;;12.70;99.90;;;;;;5052288;28;20048;-59
2023/06/08 02:37:19;;;;;;;17.75;12.80;;;12.70;99.90;;;;;;5052331;28;20116;-57
2023/06/08 02:39:45;;;;;;;21.20;12.60;;;12.70;99.90;;;;;;5034135;28;20037;-58
2023/06/08 02:42:11;;;;;;;22.08;12.70;;;12.70;99.90;;;;;;5052165;28;20043;-57
2023/06/08 02:44:37;;;;;;;18.17;12.27;;;12.70;99.90;;;;;;5051485;28;20098;-58
2023/06/08 02:47:04;;;;;;;20.50;11.75;;;12.60;99.90;;;;;;5052034;28;20049;-59
2023/06/08 02:49:30;;;;;;;19.80;12.20;;;12.60;99.90;;;;;;5051766;28;20075;-59
2023/06/08 02:51:55;;;;;;;24.90;13.38;;;12.70;99.90;;;;;;5051958;28;20045;-57
2023/06/08 02:54:22;;;;;;;15.00;8.45;;;12.60;99.90;;;;;;5051348;28;20503;-58
2023/06/08 02:56:48;;;;;;;21.17;12.60;;;12.60;99.90;;;;;;5060001;28;20056;-58
2023/06/08 02:59:13;;;;;;;17.55;12.27;;;12.60;99.90;;;;;;5071728;28;20051;-59
2023/06/08 03:01:53;;;;;;;21.50;10.02;;;12.60;99.90;;;;;;5053643;28;20399;-57
2023/06/08 03:04:24;;;;;;;22.85;12.50;;;12.60;99.90;;;;;;5055546;28;20033;-59
2023/06/08 03:06:53;;;;;;;21.48;12.25;;;12.50;99.90;;;;;;5071543;28;20551;-57
2023/06/08 03:09:28;;;;;;;17.90;12.85;;;12.50;99.90;;;;;;5070884;28;20086;-58
2023/06/08 03:11:55;;;;;;;20.50;9.02;;;12.50;99.90;;;;;;5071681;28;20498;-58
2023/06/08 03:14:21;;;;;;;21.58;10.43;;;12.50;99.90;;;;;;5071121;28;20480;-57
2023/06/08 03:16:47;;;;;;;22.98;13.02;;;12.50;99.90;;;;;;5071124;28;20040;-57
2023/06/08 03:19:13;;;;;;;26.27;13.25;;;12.50;99.90;;;;;;5071301;28;20041;-58
2023/06/08 03:21:41;;;;;;;22.02;12.88;;;12.60;99.90;;;;;;5071346;28;20036;-58
2023/06/08 03:24:08;;;;;;;18.45;11.52;;;12.60;99.90;;;;;;5070560;28;20045;-57
2023/06/08 03:26:33;;;;;;;21.65;11.20;;;12.60;99.90;;;;;;5071075;28;20036;-59
2023/06/08 03:28:59;;;;;;;20.42;11.65;;;12.50;99.90;;;;;;5070749;28;20055;-57
2023/06/08 03:31:25;;;;;;;20.10;11.35;;;12.50;99.90;;;;;;5067003;28;20051;-58
2023/06/08 03:33:50;;;;;;;20.83;8.65;;;12.50;99.90;;;;;;5069051;28;20051;-57
2023/06/08 03:36:17;;;;;;;28.95;9.77;;;12.50;99.90;;;;;;5052827;28;20049;-58
2023/06/08 03:38:43;;;;;;;17.95;9.05;;;12.50;99.90;;;;;;5070511;28;20443;-58
2023/06/08 03:41:09;;;;;;;21.10;9.45;;;12.50;99.90;;;;;;5070857;28;20041;-57
2023/06/08 03:43:35;;;;;;;19.15;8.98;;;12.50;99.90;;;;;;5036054;28;20040;-58
2023/06/08 03:46:01;;;;;;;21.73;11.43;;;12.40;99.90;;;;;;5070027;28;20458;-59
2023/06/08 03:48:27;;;;;;;19.65;8.52;;;12.50;99.90;;;;;;5070674;28;20076;-58
2023/06/08 03:50:53;;;;;;;19.38;10.57;;;12.50;99.90;;;;;;5070826;28;20075;-59
2023/06/08 03:53:18;;;;;;;19.38;10.82;;;12.50;99.90;;;;;;5070538;28;20032;-59
2023/06/08 03:55:44;;;;;;;22.85;11.77;;;12.50;99.90;;;;;;5070254;28;20046;-57
2023/06/08 03:58:13;;;;;;;24.08;11.40;;;12.50;99.90;;;;;;5070194;28;20072;-58
2023/06/08 04:00:39;;;;;;;21.50;11.55;;;12.50;99.90;;;;;;5070507;28;20043;-59
2023/06/08 04:03:05;;;;;;;22.27;12.25;;;12.50;99.90;;;;;;5070442;28;20484;-58
2023/06/08 04:05:32;;;;;;;21.98;13.20;;;12.50;99.90;;;;;;5070149;28;20094;-59
2023/06/08 04:08:01;;;;;;;22.48;12.38;;;12.50;99.90;;;;;;5052403;28;20184;-58
2023/06/08 04:10:26;;;;;;;24.50;12.85;;;12.60;99.90;;;;;;5070409;28;20040;-58
2023/06/08 04:12:52;;;;;;;25.38;13.90;;;12.60;99.90;;;;;;5070201;28;20106;-57
2023/06/08 04:15:18;;;;;;;19.83;12.77;;;12.50;99.90;;;;;;5070234;28;20037;-57
2023/06/08 04:17:46;;;;;;;21.85;13.55;;;12.60;99.90;;;;;;5070592;28;20123;-57
2023/06/08 04:20:13;;;;;;;20.77;15.35;;;12.60;99.90;;;;;;5070243;28;20171;-59
2023/06/08 04:22:39;;;;;;;24.73;11.65;;;12.70;99.90;;;;;;5070228;28;20534;-58
2023/06/08 04:25:05;;;;;;;25.20;14.68;;;12.60;99.90;;;;;;5070179;28;20032;-57
2023/06/08 04:27:31;;;;;;;25.17;10.85;;;12.60;99.90;;;;;;5070157;28;20036;-57
2023/06/08 04:29:57;;;;;;;20.83;12.85;;;12.60;99.90;;;;;;5070105;28;20044;-58
2023/06/08 04:32:23;;;;;;;23.40;11.40;;;12.70;99.90;;;;;;5070383;28;20028;-58
2023/06/08 04:34:49;;;;;;;24.17;15.25;;;12.70;99.90;;;;;;5052668;28;20037;-59
2023/06/08 04:37:15;;;;;;;25.05;10.93;;;12.60;99.90;;;;;;5052212;28;20043;-58
2023/06/08 04:39:41;;;;;;;27.48;11.93;;;12.50;99.90;;;;;;5070057;28;20087;-57
2023/06/08 04:42:08;;;;;;;21.77;10.90;;;12.50;99.90;;;;;;5069979;28;20391;-58
2023/06/08 04:44:34;;;;;;;23.02;13.43;;;12.50;99.90;;;;;;5070619;28;20032;-59
2023/06/08 04:47:02;;;;;;;27.65;11.52;;;12.50;99.90;;;;;;5074115;28;20036;-58
2023/06/08 04:49:31;;;;;;;22.90;13.95;;;12.50;99.90;;;;;;5056139;28;20125;-58
2023/06/08 04:52:00;;;;;;;20.35;13.80;;;12.50;99.90;;;;;;5055903;28;20155;-58
2023/06/08 04:54:27;;;;;;;20.98;13.43;;;12.60;99.90;;;;;;5073626;28;20545;-59
2023/06/08 04:56:59;;;;;;;19.88;13.13;;;12.60;99.90;;;;;;5074017;28;20052;-58
2023/06/08 04:59:28;;;;;;;21.48;13.00;;;12.60;99.90;;;;;;5073786;28;20148;-57
2023/06/08 05:01:54;;;;;;;19.05;12.20;;;12.60;99.90;;;;;;5074080;28;20033;-59
2023/06/08 05:04:21;;;;;;;25.63;13.93;;;12.60;99.90;;;;;;5073261;28;20048;-58
2023/06/08 05:06:47;;;;;;;23.85;13.63;;;12.60;99.90;;;;;;5072600;28;20079;-58
2023/06/08 05:09:13;;;;;;;24.13;13.50;;;12.60;99.90;;;;;;5073793;28;20048;-59
2023/06/08 05:11:39;;;;;;;23.13;13.70;;;12.60;99.90;;;;;;5073734;28;20032;-58
2023/06/08 05:14:05;;;;;;;21.55;13.02;;;12.60;99.90;;;;;;5073931;28;20271;-59
2023/06/08 05:16:30;;;;;;;20.52;13.25;;;12.60;99.90;;;;;;5073232;28;20135;-59
2023/06/08 05:18:56;;;;;;;22.90;11.60;;;12.60;99.90;;;;;;5073665;28;20036;-58
2023/06/08 05:21:22;;;;;;;22.90;13.20;;;12.60;99.90;;;;;;5073234;28;20037;-58
2023/06/08 05:23:48;;;;;;;23.75;13.77;;;12.60;99.90;;;;;;5073473;28;20112;-59
2023/06/08 05:26:13;;;;;;;20.65;10.13;;;12.70;99.90;;;;;;5072794;28;20036;-59
2023/06/08 05:28:39;;;;;;;23.90;10.77;;;12.70;99.90;;;;;;5073330;28;20044;-59
2023/06/08 05:31:05;;;;;;;25.05;13.60;;;12.80;99.90;;;;;;5073014;28;20048;-58
2023/06/08 05:33:31;;;;;;;22.48;10.80;;;12.80;99.90;;;;;;5073562;28;20449;-58
2023/06/08 05:35:57;;;;;;;23.58;13.02;;;12.80;99.90;;;;;;5073154;28;20040;-58
2023/06/08 05:38:22;;;;;;;23.38;13.52;;;12.80;99.90;;;;;;5055202;28;20035;-58
2023/06/08 05:40:48;;;;;;;24.02;10.48;;;12.90;99.90;;;;;;5073136;28;20037;-57
2023/06/08 05:43:14;;;;;;;25.13;11.27;;;12.90;99.90;;;;;;5073374;28;20040;-58
2023/06/08 05:45:39;;;;;;;22.83;13.50;;;12.90;99.90;;;;;;5072992;28;20044;-58
2023/06/08 05:48:07;;;;;;;23.10;11.32;;;12.90;99.90;;;;;;5069228;28;20507;-58
2023/06/08 05:50:32;;;;;;;21.05;12.98;;;13.00;99.90;;;;;;5054809;28;20051;-58
2023/06/08 05:52:59;;;;;;;22.08;10.88;;;13.00;99.90;;;;;;5054768;28;20044;-59
2023/06/08 05:55:25;;;;;;;22.55;13.45;;;13.10;99.90;;;;;;5071965;28;20049;-57
2023/06/08 05:57:51;;;;;;;22.15;13.00;;;13.20;99.90;;;;;;5072515;28;20109;-59
2023/06/08 06:00:17;;;;;;;19.25;12.25;;;13.20;99.90;;;;;;5047380;28;20048;-59
2023/06/08 06:02:43;;;;;;;20.42;12.25;;;13.20;99.90;;;;;;5044696;28;20060;-56
2023/06/08 06:05:09;;;;;;;20.27;9.35;;;13.20;99.90;;;;;;5063929;28;20522;-59
2023/06/08 06:07:35;;;;;;;24.05;9.63;;;13.20;99.90;;;;;;5043896;28;20047;-60
2023/06/08 06:10:03;;;;;;;23.05;9.52;;;13.30;99.90;;;;;;5064786;28;20033;-58
2023/06/08 06:12:29;;;;;;;20.23;12.45;;;13.30;99.90;;;;;;5064829;28;20047;-59
2023/06/08 06:14:55;;;;;;;19.70;12.35;;;13.30;99.90;;;;;;5063968;28;20048;-59
2023/06/08 06:17:21;;;;;;;19.67;12.38;;;13.30;99.90;;;;;;5062422;28;20029;-59
2023/06/08 06:19:47;;;;;;;18.30;8.88;;;13.40;99.90;;;;;;5062245;28;20103;-59
2023/06/08 06:22:13;;;;;;;20.33;11.13;;;13.50;99.90;;;;;;5063997;28;20039;-59
2023/06/08 06:24:38;;;;;;;18.05;10.75;;;13.50;99.90;;;;;;5061241;28;20048;-58
2023/06/08 06:27:08;;;;;;;25.33;9.05;;;13.60;99.90;;;;;;5058342;28;20028;-60
2023/06/08 06:29:34;;;;;;;15.52;8.38;;;13.70;99.90;;;;;;5060955;28;20056;-59
2023/06/08 06:32:00;;;;;;;21.50;10.70;;;13.80;99.90;;;;;;5062060;28;20125;-60
2023/06/08 06:34:25;;;;;;;20.90;10.13;;;13.90;99.90;;;;;;5042396;28;20182;-58
2023/06/08 06:36:51;;;;;;;19.77;9.60;;;13.90;99.90;;;;;;5061307;28;20029;-59
2023/06/08 06:39:19;;;;;;;21.60;9.93;;;14.00;99.90;;;;;;5062551;28;20055;-59
2023/06/08 06:41:45;;;;;;;16.52;9.68;;;14.10;99.90;;;;;;5043026;28;20112;-59
2023/06/08 06:44:10;;;;;;;18.23;9.68;;;14.10;99.90;;;;;;5061187;28;20160;-59
2023/06/08 06:46:38;;;;;;;17.90;9.48;;;14.10;99.90;;;;;;5061013;28;20040;-59
2023/06/08 06:49:03;;;;;;;19.13;8.00;;;14.20;99.90;;;;;;5061501;28;20029;-59
2023/06/08 06:51:29;;;;;;;18.45;9.75;;;14.30;99.90;;;;;;5061413;28;20044;-58
2023/06/08 06:53:55;;;;;;;16.88;9.55;;;14.30;99.90;;;;;;5061388;28;20039;-57
2023/06/08 06:56:21;;;;;;;18.35;9.70;;;14.40;99.90;;;;;;5059722;28;20051;-59
2023/06/08 06:58:47;;;;;;;23.70;8.43;;;14.40;99.90;;;;;;5061551;28;20036;-59
2023/06/08 07:01:15;;;;;;;20.55;7.93;;;14.50;99.90;;;;;;5062218;28;20115;-58
2023/06/08 07:03:46;;;;;;;15.30;8.68;;;14.50;99.90;;;;;;5042261;28;20041;-59
2023/06/08 07:06:15;;;;;;;14.93;7.95;;;14.60;99.90;;;;;;5058960;28;20037;-59
2023/06/08 07:08:41;;;;;;;19.02;9.20;;;14.60;99.90;;;;;;5060349;28;20436;-59
2023/06/08 07:11:07;;;;;;;18.58;9.20;;;14.70;99.90;;;;;;5061232;28;20495;-59
2023/06/08 07:13:33;;;;;;;16.55;8.90;;;14.70;99.90;;;;;;5061507;28;20033;-59
2023/06/08 07:15:59;;;;;;;19.38;7.68;;;14.80;99.90;;;;;;5042215;28;20624;-58
2023/06/08 07:18:24;;;;;;;20.95;8.38;;;14.80;99.90;;;;;;5059510;28;20044;-58
2023/06/08 07:20:50;;;;;;;15.75;8.68;;;14.90;99.90;;;;;;5057213;28;20028;-58
2023/06/08 07:23:16;;;;;;;23.27;8.35;;;15.00;99.90;;;;;;5058479;28;20041;-54
2023/06/08 07:25:42;;;;;;;17.42;9.00;;;15.10;99.90;;;;;;5057921;28;20101;-59
2023/06/08 07:28:08;;;;;;;22.02;7.78;;;15.20;99.90;;;;;;5058270;28;20076;-58
2023/06/08 07:30:35;;;;;;;19.52;8.77;;;15.20;99.90;;;;;;5040905;28;20052;-58
2023/06/08 07:33:01;;;;;;;20.33;8.60;;;15.30;99.90;;;;;;5039289;28;20048;-58
2023/06/08 07:35:27;;;;;;;14.38;8.07;;;15.40;99.90;;;;;;5059067;28;20339;-57
2023/06/08 07:37:54;;;;;;;15.93;6.88;;;15.40;99.90;;;;;;5058376;28;20123;-59
2023/06/08 07:40:20;;;;;;;18.20;8.27;;;15.50;99.90;;;;;;5058311;28;20040;-58
2023/06/08 07:42:46;;;;;;;14.18;7.80;;;15.60;99.90;;;;;;5060698;28;20051;-58
2023/06/08 07:45:12;;;;;;;18.38;7.20;;;15.60;99.90;;;;;;5058865;28;20119;-58
2023/06/08 07:47:39;;;;;;;17.98;7.68;;;15.70;99.90;;;;;;5055579;28;20064;-59
2023/06/08 07:50:09;;;;;;;14.77;8.20;;;15.70;99.90;;;;;;5060256;28;20032;-58
2023/06/08 07:52:36;;;;;;;15.88;8.23;;;15.70;99.90;;;;;;5054196;28;20068;-57
2023/06/08 07:55:01;;;;;;;17.95;8.60;;;15.80;99.90;;;;;;5056587;28;20854;-58
2023/06/08 07:57:27;;;;;;;15.23;7.55;;;15.90;99.90;;;;;;5056584;28;20147;-58
2023/06/08 07:59:53;;;;;;;15.35;7.75;;;16.00;99.90;;;;;;5056240;28;20087;-59
2023/06/08 08:02:20;;;;;;;14.45;7.55;;;16.10;99.90;;;;;;5036922;28;20078;-58
2023/06/08 08:04:46;;;;;;;16.30;7.00;;;16.10;99.90;;;;;;5058625;28;20119;-58
2023/06/08 08:07:11;;;;;;;18.63;6.60;;;16.20;99.90;;;;;;5058193;28;20124;-59
2023/06/08 08:09:37;;;;;;;15.00;6.97;;;16.30;99.90;;;;;;5058240;28;20033;-58
2023/06/08 08:12:03;;;;;;;17.27;8.10;;;16.30;99.90;;;;;;5055514;28;20055;-58
2023/06/08 08:14:29;;;;;;;14.00;7.05;;;16.40;99.90;;;;;;5058375;28;20032;-58
2023/06/08 08:16:54;;;;;;;15.40;6.00;;;16.50;99.90;;;;;;5059963;28;20108;-57
2023/06/08 08:19:20;;;;;;;11.63;6.45;;;16.60;99.90;;;;;;5056637;28;20029;-59
2023/06/08 08:21:46;;;;;;;15.43;7.25;;;16.60;99.90;;;;;;5056715;28;20511;-59
2023/06/08 08:24:11;;;;;;;13.13;6.30;;;16.80;99.90;;;;;;5059613;28;20370;-59
2023/06/08 08:26:40;;;;;;;14.13;5.80;;;16.90;99.90;;;;;;5057114;28;20109;-61
2023/06/08 08:29:07;;;;;;;14.32;6.55;;;16.90;99.90;;;;;;5058955;28;20476;-59
2023/06/08 08:31:32;;;;;;;15.45;6.60;;;16.90;99.90;;;;;;5058428;28;20384;-59
2023/06/08 08:33:58;;;;;;;20.92;6.13;;;17.00;99.90;;;;;;5057439;28;20038;-59
2023/06/08 08:36:24;;;;;;;12.55;5.45;;;16.90;99.90;;;;;;5059588;28;20051;-59
2023/06/08 08:38:49;;;;;;;14.88;5.90;;;16.90;99.90;;;;;;5060421;28;20041;-60
2023/06/08 08:41:19;;;;;;;15.45;7.07;;;16.80;99.90;;;;;;5060220;28;20062;-58
2023/06/08 08:44:01;;;;;;;15.80;6.53;;;16.90;99.90;;;;;;5059487;28;20108;-59
2023/06/08 08:46:33;;;;;;;16.63;6.78;;;16.90;99.90;;;;;;5059375;28;20079;-59
2023/06/08 08:49:13;;;;;;;13.52;5.65;;;17.00;99.90;;;;;;5068225;28;20115;-61
2023/06/08 08:51:39;;;;;;;16.45;5.60;;;17.10;99.90;;;;;;5067541;28;20048;-59
2023/06/08 08:54:09;;;;;;;13.45;5.50;;;17.10;99.90;;;;;;5050192;28;20037;-59
2023/06/08 08:56:37;;;;;;;14.57;6.25;;;17.20;99.90;;;;;;5068714;28;20411;-59
2023/06/08 08:59:04;;;;;;;17.02;6.63;;;17.30;99.90;;;;;;5070126;28;20186;-59
2023/06/08 09:01:32;;;;;;;10.45;5.10;;;17.40;99.90;;;;;;5070383;28;20388;-58
2023/06/08 09:04:02;;;;;;;16.33;5.85;;;17.60;99.90;;;;;;5070393;28;20071;-59
2023/06/08 09:06:28;;;;;;;12.90;5.57;;;17.70;99.90;;;;;;5070388;28;20048;-60
2023/06/08 09:08:54;;;;;;;14.07;5.75;;;17.70;99.90;;;;;;5069983;28;20164;-58
2023/06/08 09:11:21;;;;;;;15.60;5.90;;;17.80;99.90;;;;;;5070233;28;20036;-59
2023/06/08 09:13:47;;;;;;;14.23;5.50;;;17.90;99.90;;;;;;5070030;28;20159;-59
2023/06/08 09:16:15;;;;;;;15.77;5.80;;;17.90;99.90;;;;;;5051871;28;20116;-60
2023/06/08 09:18:42;;;;;;;15.25;5.68;;;18.00;99.90;;;;;;5069734;28;20044;-59
2023/06/08 09:21:28;;;;;;;15.13;6.00;;;18.10;99.90;;;;;;5070241;28;20036;-60
2023/06/08 09:24:17;;;;;;;13.23;6.32;;;18.20;99.90;;;;;;5070049;28;20067;-58
2023/06/08 09:26:47;;;;;;;15.95;5.72;;;18.30;99.90;;;;;;5069657;28;20041;-59
2023/06/08 09:29:30;;;;;;;17.65;5.78;;;18.50;99.90;;;;;;5069831;28;20039;-60
2023/06/08 09:31:55;;;;;;;14.10;5.28;;;18.70;99.90;;;;;;5072266;28;20048;-57
2023/06/08 09:34:21;;;;;;;12.98;5.53;;;18.90;99.90;;;;;;5073379;28;20051;-60
2023/06/08 09:36:48;;;;;;;12.52;5.80;;;19.10;99.90;;;;;;5055475;28;20319;-56
2023/06/08 09:39:14;;;;;;;10.35;5.25;;;19.30;99.90;;;;;;5073194;28;21763;-56
2023/06/08 09:41:40;;;;;;;13.10;4.82;;;19.40;99.90;;;;;;5073465;28;20044;-53
2023/06/08 09:44:18;;;;;;;13.57;5.82;;;19.60;99.90;;;;;;5064588;28;20055;-59
2023/06/08 09:46:45;;;;;;;13.68;5.30;;;19.70;99.90;;;;;;5064658;28;20082;-58
2023/06/08 09:49:13;;;;;;;13.90;5.72;;;19.70;99.90;;;;;;5062450;28;20123;-57
2023/06/08 09:51:48;;;;;;;14.75;5.30;;;19.90;99.90;;;;;;5062658;28;20415;-59
2023/06/08 09:54:16;;;;;;;10.90;5.43;;;20.00;99.90;;;;;;5063048;28;20068;-58
2023/06/08 09:56:47;;;;;;;12.48;4.95;;;20.10;99.90;;;;;;5061137;28;20541;-58
2023/06/08 09:59:17;;;;;;;14.65;5.30;;;20.20;99.90;;;;;;5064490;28;20055;-58
2023/06/08 10:01:53;;;;;;;11.38;5.03;;;20.40;99.90;;;;;;5062892;28;20036;-59
2023/06/08 10:04:31;;;;;;;10.68;5.07;;;20.50;99.90;;;;;;5063153;28;20044;-59
2023/06/08 10:07:03;;;;;;;11.93;4.93;;;20.60;99.90;;;;;;5063456;28;20344;-59
2023/06/08 10:09:31;;;;;;;12.30;4.95;;;20.60;99.90;;;;;;5061921;28;20029;-58
2023/06/08 10:11:59;;;;;;;11.25;5.47;;;20.70;99.90;;;;;;5064266;28;20147;-59
2023/06/08 10:14:26;;;;;;;14.93;5.40;;;20.80;99.90;;;;;;5063626;28;20044;-60
2023/06/08 10:17:01;;;;;;;11.35;5.00;;;21.00;99.90;;;;;;5063109;28;20052;-58
2023/06/08 10:19:30;;;;;;;12.88;4.57;;;21.10;99.90;;;;;;5063398;28;20198;-58
2023/06/08 10:21:57;;;;;;;9.18;4.80;;;21.10;99.90;;;;;;5061527;28;20029;-60
2023/06/08 10:24:25;;;;;;;12.75;5.30;;;21.30;99.90;;;;;;5063609;28;20442;-60
2023/06/08 10:26:50;;;;;;;12.75;5.15;;;21.40;99.90;;;;;;5041143;28;20719;-60
2023/06/08 10:29:25;;;;;;;10.95;4.70;;;21.60;99.90;;;;;;5061913;28;20341;-59
2023/06/08 10:31:51;;;;;;;13.10;4.93;;;21.70;99.90;;;;;;5061972;28;20051;-59
2023/06/08 10:34:17;;;;;;;9.65;4.10;;;21.80;99.90;;;;;;5062092;28;20040;-59
2023/06/08 10:36:43;;;;;;;13.05;4.60;;;21.90;99.90;;;;;;5062306;28;20178;-61
2023/06/08 10:39:14;;;;;;;12.43;4.68;;;22.00;99.90;;;;;;5042322;28;20032;-60
2023/06/08 10:41:57;;;;;;;10.70;4.65;;;22.10;99.90;;;;;;5060894;28;20392;-60
2023/06/08 10:44:24;;;;;;;13.48;4.97;;;22.10;99.90;;;;;;5061146;28;20032;-59
2023/06/08 10:47:01;;;;;;;11.30;3.78;;;22.20;99.90;;;;;;5063150;28;20040;-58
2023/06/08 10:49:32;;;;;;;14.95;4.85;;;22.30;99.90;;;;;;5062303;28;20044;-60
2023/06/08 10:51:59;;;;;;;13.05;4.10;;;22.40;99.50;;;;;;5061985;28;20111;-58
2023/06/08 10:54:25;;;;;;;10.93;4.60;;;22.40;99.70;;;;;;5062033;28;20037;-59
2023/06/08 10:56:54;;;;;;;11.20;4.70;;;22.40;99.70;;;;;;5043539;28;20070;-59
2023/06/08 10:59:38;;;;;;;12.18;4.50;;;22.60;99.70;;;;;;5061684;28;20024;-60
2023/06/08 11:02:05;;;;;;;9.15;4.35;;;22.70;99.50;;;;;;5061625;28;20040;-59
2023/06/08 11:04:32;;;;;;;12.55;4.00;;;22.80;99.90;;;;;;5060977;28;20120;-59
2023/06/08 11:07:03;;;;;;;11.60;3.83;;;22.90;99.70;;;;;;5061193;28;20032;-60
2023/06/08 11:09:35;;;;;;;9.88;4.00;;;23.00;99.00;;;;;;5061931;28;20541;-60
2023/06/08 11:12:01;;;;;;;13.95;4.32;;;23.10;98.70;;;;;;5061587;28;20036;-59
2023/06/08 11:14:27;;;;;;;13.30;4.50;;;23.10;98.80;;;;;;5042237;28;20040;-58
2023/06/08 11:16:54;;;;;;;9.60;3.97;;;23.20;98.80;;;;;;5062034;28;20045;-59
2023/06/08 11:19:21;;;;;;;13.35;4.45;;;23.30;98.70;;;;;;5061939;28;20047;-59
2023/06/08 11:21:50;;;;;;;10.35;4.32;;;23.30;98.50;;;;;;5061000;28;20072;-60
2023/06/08 11:24:19;;;;;;;8.80;3.92;;;23.40;98.40;;;;;;5043393;28;20369;-60
2023/06/08 11:26:45;;;;;;;13.77;4.28;;;23.50;98.20;;;;;;5060694;28;20064;-59
2023/06/08 11:29:12;;;;;;;12.80;4.78;;;23.50;98.10;;;;;;5062101;28;20165;-60
2023/06/08 11:31:41;;;;;;;12.32;4.47;;;23.50;98.00;;;;;;5062071;28;20047;-60
2023/06/08 11:34:13;;;;;;;10.00;3.83;;;23.60;98.20;;;;;;5041500;28;20124;-59
2023/06/08 11:36:39;;;;;;;11.25;3.88;;;23.70;97.70;;;;;;5061288;28;20047;-60
2023/06/08 11:39:07;;;;;;;10.80;3.80;;;23.90;97.50;;;;;;5061313;28;20117;-59
2023/06/08 11:41:33;;;;;;;10.00;3.97;;;24.00;97.30;;;;;;5061748;28;20036;-59
2023/06/08 11:43:58;;;;;;;11.10;4.15;;;24.10;97.00;;;;;;5061154;28;20024;-59
2023/06/08 11:46:26;;;;;;;9.05;3.88;;;24.10;96.80;;;;;;5063238;28;20040;-59
2023/06/08 11:48:52;;;;;;;10.43;4.15;;;24.20;97.10;;;;;;5069066;28;20040;-59
2023/06/08 11:51:18;;;;;;;9.55;4.43;;;24.30;97.20;;;;;;5066685;28;20043;-60
2023/06/08 11:53:47;;;;;;;11.35;3.90;;;24.60;97.30;;;;;;5064353;28;20491;-59
2023/06/08 11:56:13;;;;;;;9.95;3.83;;;24.70;96.90;;;;;;5068234;28;20098;-59
2023/06/08 11:58:40;;;;;;;8.98;3.60;;;24.70;96.90;;;;;;5070265;28;20056;-60
2023/06/08 12:01:11;;;;;;;12.85;4.18;;;24.80;96.70;;;;;;5070768;28;20058;-59
2023/06/08 12:03:47;;;;;;;9.85;4.10;;;25.00;96.50;;;;;;5070143;28;20038;-59
2023/06/08 12:06:14;;;;;;;11.50;4.05;;;25.10;95.90;;;;;;5070649;28;20076;-59
2023/06/08 12:08:41;;;;;;;12.55;4.43;;;25.10;95.80;;;;;;5052496;28;20051;-60
2023/06/08 12:11:11;;;;;;;9.48;4.03;;;25.10;95.30;;;;;;5070727;28;20419;-59
2023/06/08 12:13:41;;;;;;;11.23;3.70;;;25.20;95.50;;;;;;5069659;28;20028;-60
2023/06/08 12:16:09;;;;;;;9.65;3.75;;;25.30;95.50;;;;;;5070311;28;20072;-59
2023/06/08 12:18:39;;;;;;;8.68;3.67;;;25.40;95.40;;;;;;5070324;28;20478;-59
2023/06/08 12:21:08;;;;;;;11.90;3.78;;;25.50;95.00;;;;;;5070356;28;20048;-59
2023/06/08 12:23:33;;;;;;;9.32;3.90;;;25.60;95.40;;;;;;5070215;28;20403;-59
2023/06/08 12:26:00;;;;;;;8.38;3.95;;;25.70;94.90;;;;;;5069763;28;20094;-59
2023/06/08 12:28:26;;;;;;;13.55;4.38;;;25.70;94.70;;;;;;5070280;28;20150;-59
2023/06/08 12:30:53;;;;;;;11.35;3.90;;;25.80;94.60;;;;;;5070376;28;20075;-59
2023/06/08 12:33:20;;;;;;;9.65;4.00;;;25.80;95.00;;;;;;5070470;28;20081;-58
2023/06/08 12:35:49;;;;;;;9.38;3.92;;;25.90;94.50;;;;;;5051850;28;20490;-58